Harmony, Texas
Current Conditions -  °F | °C
As of 11:55 AM on Saturday 25 Oct 2014 (Local Time) from KRFI Reporting Station
Clear Clear  
Wind Chill: 77°   Ceiling: Unl
Heat Index: 79°   Visibility: 10mi
Dew Point: 60°   Wind: 7mph
Humidity: 56%   Direction: 260°W
Pressure: 30.18"   Gusts: NA
Location:  32.2818°N, 94.951°W
Report Text: KRFI 251655Z AUTO 26006KT 10SM CLR 25/16 A3018 RMK AO2 T02490156
Loading
Personal Weather Stations






























Interactive Weather Map
Tropical Storm Tracking
New forecast layout! Learn more

10-Day Weather Forecast

Advertisements
Track Severe Weather on mobile